Rancho Santa Margarita, California
Current Conditions -  °F | °C
As of 7:53 PM on Thursday 18 Dec 2014 (Local Time) from KSNA Reporting Station
Clear Clear  
Wind Chill: 60°   Ceiling: Unl
Heat Index: 60°   Visibility: 10mi
Dew Point: 50°   Wind: 0mph
Humidity: 69%   Direction: NA
Pressure: 30.2"   Gusts: NA
Location:  33.63°N, 117.6°W
Report Text: KSNA 190353Z 00000KT 10SM CLR 16/10 A3020 RMK AO2 SLP226 T01560100
Loading
Personal Weather Stations






























Interactive Weather Map New forecast layout! Learn more

10-Day Weather Forecast

Advertisements
Track Severe Weather on mobile